createdAt,value
2023-05-07T00:00:32.157Z,42.30
2023-05-07T00:03:03.218Z,42.35
2023-05-07T00:05:33.876Z,42.38
2023-05-07T00:08:05.027Z,42.64
2023-05-07T00:10:37.923Z,42.58
2023-05-07T00:13:07.483Z,42.64
2023-05-07T00:15:38.101Z,42.27
2023-05-07T00:18:08.052Z,42.52
2023-05-07T00:20:38.276Z,42.67
2023-05-07T00:23:08.563Z,42.51
2023-05-07T00:25:40.990Z,42.44
2023-05-07T00:28:10.940Z,42.57
2023-05-07T00:30:41.500Z,42.50
2023-05-07T00:33:11.439Z,42.82
2023-05-07T00:35:41.447Z,42.69
2023-05-07T00:38:12.136Z,42.78
2023-05-07T00:40:45.925Z,42.75
2023-05-07T00:43:16.629Z,42.75
2023-05-07T00:45:47.177Z,42.59
2023-05-07T00:48:18.766Z,42.52
2023-05-07T00:50:49.787Z,42.90
2023-05-07T00:53:20.037Z,42.72
2023-05-07T00:55:53.398Z,42.70
2023-05-07T00:58:24.746Z,42.63
2023-05-07T01:00:55.104Z,42.64
2023-05-07T01:03:25.414Z,42.48
2023-05-07T01:06:00.526Z,42.50
2023-05-07T01:08:31.807Z,42.71
2023-05-07T01:11:05.420Z,42.25
2023-05-07T01:13:37.116Z,42.53
2023-05-07T01:16:08.847Z,42.17
2023-05-07T01:18:39.435Z,42.34
2023-05-07T01:21:13.986Z,42.54
2023-05-07T01:23:47.515Z,42.28
2023-05-07T01:26:17.750Z,42.38
2023-05-07T01:28:47.855Z,42.20
2023-05-07T01:31:20.044Z,42.26
2023-05-07T01:33:53.722Z,42.19
2023-05-07T01:36:28.542Z,42.14
2023-05-07T01:39:01.990Z,42.27
2023-05-07T01:41:32.546Z,42.26
2023-05-07T01:44:03.887Z,42.19
2023-05-07T01:46:35.803Z,42.31
2023-05-07T01:49:06.642Z,42.44
2023-05-07T01:51:38.141Z,42.46
2023-05-07T01:54:10.205Z,42.37
2023-05-07T01:56:40.821Z,42.32
2023-05-07T01:59:10.797Z,42.29
2023-05-07T02:01:41.057Z,42.21
2023-05-07T02:04:11.290Z,42.11
2023-05-07T02:06:42.035Z,42.07
2023-05-07T02:09:16.550Z,42.09
2023-05-07T02:11:49.237Z,42.13
2023-05-07T02:14:21.788Z,42.29
2023-05-07T02:16:52.424Z,42.13
2023-05-07T02:19:22.863Z,42.29
2023-05-07T02:21:52.979Z,42.25
2023-05-07T02:24:25.171Z,42.21
2023-05-07T02:26:55.438Z,41.95
2023-05-07T02:29:26.453Z,42.36
2023-05-07T02:31:57.076Z,42.11
2023-05-07T02:34:27.501Z,42.08
2023-05-07T02:36:58.171Z,42.26
2023-05-07T02:39:30.484Z,42.12
2023-05-07T02:42:00.679Z,42.03
2023-05-07T02:44:32.823Z,42.03
2023-05-07T02:47:03.128Z,42.21
2023-05-07T02:49:32.878Z,42.17
2023-05-07T02:52:03.660Z,41.98
2023-05-07T02:54:36.765Z,42.10
2023-05-07T02:57:07.655Z,42.07
2023-05-07T02:59:37.959Z,41.90
2023-05-07T03:02:08.500Z,41.87
2023-05-07T03:04:39.036Z,41.85
2023-05-07T03:07:09.820Z,42.09
2023-05-07T03:09:42.254Z,41.75
2023-05-07T03:12:12.606Z,41.94
2023-05-07T03:14:42.982Z,41.86
2023-05-07T03:17:19.698Z,42.06
2023-05-07T03:19:50.075Z,41.97
2023-05-07T03:22:20.708Z,42.08
2023-05-07T03:24:53.135Z,41.75
2023-05-07T03:27:23.516Z,41.96
2023-05-07T03:29:54.041Z,42.02
2023-05-07T03:32:25.450Z,41.91
2023-05-07T03:34:55.921Z,41.87
2023-05-07T03:37:26.062Z,42.10
2023-05-07T03:39:57.931Z,42.05
2023-05-07T03:42:28.887Z,41.98
2023-05-07T03:44:59.311Z,42.16
2023-05-07T03:47:29.873Z,41.93
2023-05-07T03:50:00.871Z,42.07
2023-05-07T03:52:32.400Z,42.00
2023-05-07T03:55:05.027Z,42.18
2023-05-07T03:57:35.942Z,42.27
2023-05-07T04:00:08.223Z,41.97
2023-05-07T04:02:39.241Z,42.27
2023-05-07T04:05:11.268Z,42.31
2023-05-07T04:07:41.918Z,42.17
2023-05-07T04:10:15.407Z,42.36
2023-05-07T04:12:46.117Z,42.46
2023-05-07T04:15:16.735Z,42.34
2023-05-07T04:17:47.625Z,42.67
2023-05-07T04:20:20.598Z,42.43
2023-05-07T04:22:50.911Z,42.50
2023-05-07T04:25:27.937Z,42.39
2023-05-07T04:27:58.320Z,42.56
2023-05-07T04:30:29.230Z,42.94
2023-05-07T04:33:00.522Z,42.68
2023-05-07T04:35:31.255Z,42.79
2023-05-07T04:38:01.460Z,43.03
2023-05-07T04:40:35.560Z,42.90
2023-05-07T04:43:08.203Z,43.03
2023-05-07T04:45:39.477Z,42.97
2023-05-07T04:48:10.355Z,43.18
2023-05-07T04:50:40.554Z,42.92
2023-05-07T04:53:11.219Z,43.19
2023-05-07T04:55:43.937Z,43.21
2023-05-07T04:58:15.250Z,43.16
2023-05-07T05:00:46.686Z,43.21
2023-05-07T05:03:17.568Z,43.41
2023-05-07T05:05:50.164Z,43.30
2023-05-07T05:08:20.860Z,43.71
2023-05-07T05:10:54.761Z,43.37
2023-05-07T05:13:25.974Z,43.61
2023-05-07T05:15:56.664Z,43.55
2023-05-07T05:18:27.777Z,43.42
2023-05-07T05:20:58.804Z,43.46
2023-05-07T05:23:31.284Z,43.79
2023-05-07T05:26:04.145Z,43.52
2023-05-07T05:28:34.312Z,43.89
2023-05-07T05:31:05.259Z,43.49
2023-05-07T05:33:36.191Z,43.78
2023-05-07T05:36:08.021Z,43.56
2023-05-07T05:38:38.820Z,43.75
2023-05-07T05:41:12.379Z,43.71
2023-05-07T05:43:43.883Z,43.67
2023-05-07T05:46:17.061Z,43.72
2023-05-07T05:48:48.343Z,43.91
2023-05-07T05:51:18.090Z,43.81
2023-05-07T05:53:48.215Z,43.59
2023-05-07T05:56:21.183Z,43.49
2023-05-07T05:58:51.723Z,43.62
2023-05-07T06:01:22.856Z,43.66
2023-05-07T06:03:53.096Z,43.54
2023-05-07T06:06:23.921Z,43.69
2023-05-07T06:08:54.333Z,43.18
2023-05-07T06:11:27.207Z,43.57
2023-05-07T06:13:57.667Z,43.36
2023-05-07T06:16:29.359Z,43.28
2023-05-07T06:18:59.302Z,43.20
2023-05-07T06:21:30.028Z,43.60
2023-05-07T06:23:59.960Z,43.40
2023-05-07T06:26:32.152Z,43.38
2023-05-07T06:29:02.449Z,43.75
2023-05-07T06:31:35.274Z,43.45
2023-05-07T06:34:05.245Z,43.51
2023-05-07T06:36:35.723Z,43.66
2023-05-07T06:39:05.920Z,43.81
2023-05-07T06:41:37.544Z,43.45
2023-05-07T06:44:09.880Z,43.37
2023-05-07T06:46:40.027Z,43.69
2023-05-07T06:49:10.194Z,43.82
2023-05-07T06:51:41.234Z,43.70
2023-05-07T06:54:11.932Z,43.50
2023-05-07T06:56:44.301Z,43.48
2023-05-07T06:59:14.729Z,43.63
2023-05-07T07:01:45.071Z,43.46
2023-05-07T07:04:14.726Z,43.38
2023-05-07T07:06:45.185Z,43.31
2023-05-07T07:09:24.036Z,43.80
2023-05-07T07:11:56.902Z,43.44
2023-05-07T07:14:27.556Z,43.43
2023-05-07T07:16:57.949Z,43.56
2023-05-07T07:19:28.590Z,43.68
2023-05-07T07:21:59.005Z,43.46
2023-05-07T07:24:29.484Z,43.29
2023-05-07T07:27:02.044Z,43.16
2023-05-07T07:29:32.436Z,43.33
2023-05-07T07:32:03.196Z,43.64
2023-05-07T07:34:33.525Z,43.52
2023-05-07T07:37:06.685Z,43.49
2023-05-07T07:39:36.619Z,43.20
2023-05-07T07:42:09.214Z,43.10
2023-05-07T07:44:40.949Z,43.10
2023-05-07T07:47:12.156Z,43.24
2023-05-07T07:49:43.014Z,42.95
2023-05-07T07:52:13.746Z,43.19
2023-05-07T07:54:44.325Z,42.75
2023-05-07T07:57:16.522Z,43.14
2023-05-07T07:59:47.300Z,42.75
2023-05-07T08:02:17.714Z,42.59
2023-05-07T08:04:47.766Z,42.63
2023-05-07T08:07:20.265Z,42.99
2023-05-07T08:09:51.276Z,42.71
2023-05-07T08:12:23.885Z,42.38
2023-05-07T08:14:54.873Z,42.57
2023-05-07T08:17:25.545Z,42.40
2023-05-07T08:19:56.139Z,42.77
2023-05-07T08:22:26.832Z,42.84
2023-05-07T08:24:57.312Z,42.72
2023-05-07T08:27:29.436Z,42.31
2023-05-07T08:29:59.523Z,42.23
2023-05-07T08:32:29.924Z,42.55
2023-05-07T08:35:00.339Z,42.46
2023-05-07T08:37:30.239Z,42.17
2023-05-07T08:40:00.842Z,42.29
2023-05-07T08:42:38.821Z,42.58
2023-05-07T08:45:13.541Z,42.18
2023-05-07T08:47:50.013Z,42.45
2023-05-07T08:50:22.188Z,42.44
2023-05-07T08:52:52.678Z,42.43
2023-05-07T08:55:24.505Z,42.69
2023-05-07T08:57:57.568Z,42.56
2023-05-07T09:00:28.338Z,42.27
2023-05-07T09:02:58.407Z,42.15
2023-05-07T09:05:29.094Z,42.62
2023-05-07T09:08:02.170Z,42.48
2023-05-07T09:10:36.873Z,42.47
2023-05-07T09:13:09.408Z,42.59
2023-05-07T09:15:40.070Z,42.75
2023-05-07T09:18:10.230Z,42.49
2023-05-07T09:20:41.222Z,42.47
2023-05-07T09:23:12.712Z,42.47
2023-05-07T09:25:43.158Z,42.74
2023-05-07T09:28:17.048Z,42.40
2023-05-07T09:30:46.937Z,42.62
2023-05-07T09:33:17.653Z,42.61
2023-05-07T09:35:48.538Z,42.48
2023-05-07T09:38:23.287Z,42.65
2023-05-07T09:41:07.326Z,42.69
2023-05-07T09:43:41.070Z,42.54
2023-05-07T09:46:15.411Z,42.54
2023-05-07T09:48:47.316Z,42.71
2023-05-07T09:51:32.693Z,42.22
2023-05-07T09:54:04.869Z,42.63
2023-05-07T09:56:35.904Z,42.96
2023-05-07T09:59:09.765Z,42.56
2023-05-07T10:01:45.784Z,42.40
2023-05-07T10:04:17.892Z,42.33
2023-05-07T10:06:49.570Z,42.48
2023-05-07T10:09:23.802Z,42.27
2023-05-07T10:11:54.786Z,42.74
2023-05-07T10:14:28.402Z,42.72
2023-05-07T10:17:00.414Z,42.05
2023-05-07T10:19:33.383Z,42.26
2023-05-07T10:22:09.208Z,42.21
2023-05-07T10:24:41.133Z,42.47
2023-05-07T10:27:16.632Z,42.09
2023-05-07T10:30:01.317Z,41.80
2023-05-07T10:32:43.316Z,41.77
2023-05-07T10:35:20.740Z,42.42
2023-05-07T10:37:52.364Z,41.58
2023-05-07T10:40:24.849Z,41.65
2023-05-07T10:43:00.843Z,41.62
2023-05-07T10:45:33.641Z,41.74
2023-05-07T10:50:49.859Z,41.62
2023-05-07T10:53:31.559Z,41.87
2023-05-07T10:56:32.197Z,41.90
2023-05-07T10:59:44.953Z,41.71
2023-05-07T11:02:17.486Z,41.42
2023-05-07T11:04:48.381Z,41.67
2023-05-07T11:07:33.536Z,41.79
2023-05-07T11:10:09.508Z,41.35
2023-05-07T11:12:57.687Z,41.35
2023-05-07T11:15:49.405Z,41.68
2023-05-07T11:18:22.270Z,41.07
2023-05-07T11:21:01.960Z,41.64
2023-05-07T11:24:12.194Z,41.50
2023-05-07T11:26:51.218Z,41.05
2023-05-07T11:29:23.776Z,41.51
2023-05-07T11:31:55.647Z,41.28
2023-05-07T11:34:29.163Z,41.20
2023-05-07T11:37:03.912Z,41.33
2023-05-07T11:39:38.436Z,40.98
2023-05-07T11:42:11.170Z,41.39
2023-05-07T11:44:49.676Z,41.26
2023-05-07T11:47:22.502Z,40.86
2023-05-07T11:49:57.404Z,40.80
2023-05-07T11:52:28.521Z,41.30
2023-05-07T11:55:01.041Z,40.70
2023-05-07T11:57:32.165Z,41.19
2023-05-07T12:00:06.162Z,41.40
2023-05-07T12:02:36.959Z,41.14
2023-05-07T12:05:10.701Z,40.96
2023-05-07T12:07:41.581Z,40.58
2023-05-07T12:10:14.692Z,40.71
2023-05-07T12:12:49.004Z,40.77
2023-05-07T12:15:20.620Z,41.02
2023-05-07T12:17:52.199Z,40.54
2023-05-07T12:20:24.552Z,41.11
2023-05-07T12:22:55.910Z,41.17
2023-05-07T12:25:26.812Z,41.06
2023-05-07T12:27:57.550Z,40.62
2023-05-07T12:30:27.819Z,40.42
2023-05-07T12:32:58.939Z,40.97
2023-05-07T12:35:40.992Z,40.66
2023-05-07T12:38:13.634Z,40.71
2023-05-07T12:40:46.654Z,41.13
2023-05-07T12:43:20.829Z,40.94
2023-05-07T12:45:54.185Z,41.10
2023-05-07T12:48:25.362Z,40.67
2023-05-07T12:50:58.023Z,40.76
2023-05-07T12:53:30.669Z,41.19
2023-05-07T12:56:02.997Z,40.81
2023-05-07T12:58:37.995Z,40.62
2023-05-07T13:01:12.501Z,40.79
2023-05-07T13:03:43.254Z,40.91
2023-05-07T13:06:15.779Z,41.00
2023-05-07T13:08:46.660Z,40.44
2023-05-07T13:11:17.495Z,40.52
2023-05-07T13:13:48.001Z,40.74
2023-05-07T13:18:52.433Z,40.83
2023-05-07T13:21:24.114Z,40.31
2023-05-07T13:23:54.869Z,40.43
2023-05-07T13:26:26.723Z,40.76
2023-05-07T13:28:58.159Z,40.31
2023-05-07T13:31:28.821Z,40.28
2023-05-07T13:33:59.278Z,40.38
2023-05-07T13:36:34.505Z,40.79
2023-05-07T13:39:04.877Z,40.50
2023-05-07T13:41:35.314Z,40.64
2023-05-07T13:44:06.034Z,40.56
2023-05-07T13:46:36.628Z,40.76
2023-05-07T13:49:06.976Z,40.39
2023-05-07T13:51:38.785Z,40.02
2023-05-07T13:54:09.526Z,40.47
2023-05-07T13:56:40.139Z,40.31
2023-05-07T13:59:10.611Z,40.39
2023-05-07T14:01:41.299Z,40.16
2023-05-07T14:04:12.096Z,40.27
2023-05-07T14:06:45.008Z,39.77
2023-05-07T14:09:15.575Z,40.09
2023-05-07T14:11:46.193Z,40.20
2023-05-07T14:14:17.290Z,39.94
2023-05-07T14:16:49.416Z,39.78
2023-05-07T14:19:20.657Z,39.63
2023-05-07T14:21:53.380Z,40.00
2023-05-07T14:24:37.079Z,40.04
2023-05-07T14:27:08.733Z,40.00
2023-05-07T14:29:38.679Z,39.92
2023-05-07T14:32:09.433Z,39.61
2023-05-07T14:34:39.939Z,39.78
2023-05-07T14:37:12.446Z,39.78
2023-05-07T14:39:42.935Z,39.95
2023-05-07T14:42:13.866Z,40.31
2023-05-07T14:44:46.199Z,40.29
2023-05-07T14:47:19.926Z,39.56
2023-05-07T14:49:50.952Z,40.14
2023-05-07T14:52:22.900Z,39.76
2023-05-07T14:54:52.961Z,40.04
2023-05-07T14:57:23.598Z,39.68
2023-05-07T14:59:53.991Z,39.79
2023-05-07T15:02:24.654Z,39.46
2023-05-07T15:04:55.222Z,39.66
2023-05-07T15:07:27.828Z,39.67
2023-05-07T15:09:58.851Z,39.96
2023-05-07T15:12:29.222Z,39.92
2023-05-07T15:14:59.720Z,39.64
2023-05-07T15:17:30.255Z,39.62
2023-05-07T15:20:00.945Z,39.77
2023-05-07T15:22:33.838Z,39.95
2023-05-07T15:25:03.889Z,39.98
2023-05-07T15:27:34.447Z,39.89
2023-05-07T15:30:05.229Z,39.69
2023-05-07T15:32:35.829Z,39.86
2023-05-07T15:35:06.569Z,39.53
2023-05-07T15:37:38.997Z,39.72
2023-05-07T15:40:12.037Z,39.96
2023-05-07T15:42:42.100Z,39.43
2023-05-07T15:45:14.218Z,40.19
2023-05-07T15:47:44.967Z,39.96
2023-05-07T15:50:15.224Z,39.93
2023-05-07T15:52:49.573Z,40.19
2023-05-07T15:55:19.996Z,39.96
2023-05-07T15:57:50.122Z,39.98
2023-05-07T16:00:21.322Z,39.73
2023-05-07T16:02:52.047Z,39.97
2023-05-07T16:05:22.723Z,39.82
2023-05-07T16:07:54.940Z,40.19
2023-05-07T16:10:25.842Z,39.60
2023-05-07T16:12:56.249Z,39.62
2023-05-07T16:15:26.862Z,39.93
2023-05-07T16:17:58.543Z,39.98
2023-05-07T16:20:31.960Z,40.06
2023-05-07T16:23:04.489Z,40.30
2023-05-07T16:25:34.888Z,40.37
2023-05-07T16:28:04.664Z,40.09
2023-05-07T16:30:35.179Z,40.27
2023-05-07T16:33:05.795Z,40.37
2023-05-07T16:35:36.054Z,40.37
2023-05-07T16:38:10.684Z,40.27
2023-05-07T16:40:42.424Z,40.04
2023-05-07T16:43:14.134Z,40.21
2023-05-07T16:45:44.773Z,40.08
2023-05-07T16:48:15.131Z,40.15
2023-05-07T16:50:45.855Z,39.98
2023-05-07T16:53:17.768Z,40.16
2023-05-07T16:55:48.071Z,40.08
2023-05-07T16:58:18.581Z,40.40
2023-05-07T17:00:50.946Z,40.53
2023-05-07T17:03:21.838Z,40.34
2023-05-07T17:05:52.694Z,40.27
2023-05-07T17:08:24.856Z,40.24
2023-05-07T17:10:54.854Z,40.29
2023-05-07T17:13:25.728Z,40.25
2023-05-07T17:15:56.134Z,40.21
2023-05-07T17:18:26.627Z,40.40
2023-05-07T17:20:57.151Z,40.01
2023-05-07T17:23:30.616Z,40.57
2023-05-07T17:26:01.146Z,40.23
2023-05-07T17:28:32.152Z,40.48
2023-05-07T17:31:02.593Z,40.26
2023-05-07T17:33:33.084Z,40.43
2023-05-07T17:36:04.078Z,40.63
2023-05-07T17:38:36.633Z,40.42
2023-05-07T17:41:07.042Z,40.68
2023-05-07T17:43:36.726Z,40.39
2023-05-07T17:46:06.385Z,40.05
2023-05-07T17:48:36.132Z,40.52
2023-05-07T17:51:06.937Z,40.62
2023-05-07T17:53:38.954Z,40.65
2023-05-07T17:56:09.372Z,40.75
2023-05-07T17:58:56.179Z,40.57
2023-05-07T18:01:29.389Z,40.49
2023-05-07T18:03:59.886Z,40.46
2023-05-07T18:06:30.728Z,40.35
2023-05-07T18:09:02.764Z,40.64
2023-05-07T18:11:33.912Z,40.56
2023-05-07T18:14:03.779Z,40.58
2023-05-07T18:16:34.625Z,40.45
2023-05-07T18:19:06.212Z,40.47
2023-05-07T18:21:36.363Z,40.72
2023-05-07T18:24:09.257Z,40.73
2023-05-07T18:26:39.678Z,40.50
2023-05-07T18:29:10.025Z,40.51
2023-05-07T18:31:40.580Z,40.85
2023-05-07T18:34:11.008Z,40.62
2023-05-07T18:36:41.617Z,40.67
2023-05-07T18:39:13.666Z,40.69
2023-05-07T18:41:45.538Z,40.64
2023-05-07T18:44:15.708Z,40.69
2023-05-07T18:46:48.179Z,40.69
2023-05-07T18:49:18.189Z,40.69
2023-05-07T18:51:48.450Z,40.83
2023-05-07T18:54:21.072Z,40.90
2023-05-07T18:56:52.025Z,40.98
2023-05-07T18:59:22.883Z,40.73
2023-05-07T19:01:53.435Z,40.70
2023-05-07T19:04:24.923Z,40.85
2023-05-07T19:06:55.454Z,40.83
2023-05-07T19:09:27.994Z,41.15
2023-05-07T19:11:59.227Z,40.67
2023-05-07T19:14:29.534Z,40.95
2023-05-07T19:16:59.217Z,40.70
2023-05-07T19:19:30.044Z,40.79
2023-05-07T19:22:00.188Z,41.02
2023-05-07T19:24:33.588Z,40.81
2023-05-07T19:27:04.022Z,40.95
2023-05-07T19:29:34.465Z,41.00
2023-05-07T19:32:05.240Z,40.82
2023-05-07T19:34:36.206Z,41.04
2023-05-07T19:37:06.857Z,41.34
2023-05-07T19:39:38.677Z,41.19
2023-05-07T19:42:08.705Z,41.10
2023-05-07T19:44:38.847Z,40.90
2023-05-07T19:47:09.676Z,41.23
2023-05-07T19:49:40.390Z,40.83
2023-05-07T19:52:10.761Z,40.95
2023-05-07T19:54:43.036Z,40.99
2023-05-07T19:57:13.432Z,41.18
2023-05-07T19:59:43.482Z,41.03
2023-05-07T20:02:14.440Z,41.30
2023-05-07T20:04:44.599Z,41.18
2023-05-07T20:07:15.093Z,41.13
2023-05-07T20:09:47.468Z,41.19
2023-05-07T20:12:18.450Z,41.22
2023-05-07T20:14:48.258Z,41.12
2023-05-07T20:17:20.048Z,41.19
2023-05-07T20:19:50.088Z,41.18
2023-05-07T20:22:20.257Z,41.22
2023-05-07T20:24:52.256Z,41.07
2023-05-07T20:27:25.188Z,41.17
2023-05-07T20:29:56.133Z,41.08
2023-05-07T20:32:26.976Z,41.26
2023-05-07T20:34:57.189Z,41.58
2023-05-07T20:37:27.778Z,41.16
2023-05-07T20:39:59.779Z,41.08
2023-05-07T20:42:30.285Z,41.39
2023-05-07T20:45:02.153Z,41.69
2023-05-07T20:47:35.127Z,41.13
2023-05-07T20:50:05.383Z,41.27
2023-05-07T20:52:35.729Z,41.22
2023-05-07T20:55:09.501Z,41.28
2023-05-07T20:57:40.296Z,41.16
2023-05-07T21:00:13.026Z,41.33
2023-05-07T21:02:43.630Z,41.13
2023-05-07T21:05:14.224Z,41.28
2023-05-07T21:07:44.496Z,41.19
2023-05-07T21:10:16.288Z,41.28
2023-05-07T21:12:46.280Z,41.18
2023-05-07T21:15:16.243Z,41.54
2023-05-07T21:17:46.604Z,41.25
2023-05-07T21:20:17.116Z,41.40
2023-05-07T21:22:46.985Z,41.49
2023-05-07T21:25:25.566Z,41.31
2023-05-07T21:27:55.378Z,41.30
2023-05-07T21:30:26.045Z,41.41
2023-05-07T21:32:56.581Z,41.29
2023-05-07T21:35:26.952Z,41.58
2023-05-07T21:37:56.909Z,41.43
2023-05-07T21:40:28.467Z,41.51
2023-05-07T21:42:58.591Z,41.69
2023-05-07T21:45:29.014Z,41.48
2023-05-07T21:48:00.144Z,41.57
2023-05-07T21:50:30.650Z,41.39
2023-05-07T21:53:00.685Z,41.51
2023-05-07T21:55:33.458Z,41.56
2023-05-07T21:58:06.020Z,41.49
2023-05-07T22:00:36.419Z,41.59
2023-05-07T22:03:06.205Z,41.62
2023-05-07T22:05:36.246Z,41.53
2023-05-07T22:08:07.547Z,41.73
2023-05-07T22:10:40.035Z,41.76
2023-05-07T22:13:10.269Z,41.66
2023-05-07T22:15:49.594Z,41.74
2023-05-07T22:18:26.917Z,41.68
2023-05-07T22:20:56.777Z,41.68
2023-05-07T22:23:27.141Z,41.87
2023-05-07T22:25:59.466Z,41.92
2023-05-07T22:28:29.797Z,41.87
2023-05-07T22:31:00.223Z,41.82
2023-05-07T22:33:30.995Z,42.00
2023-05-07T22:36:01.354Z,41.79
2023-05-07T22:38:31.510Z,41.77
2023-05-07T22:41:03.681Z,41.80
2023-05-07T22:43:34.699Z,41.79
2023-05-07T22:46:05.276Z,41.81
2023-05-07T22:48:36.097Z,41.81
2023-05-07T22:51:06.786Z,41.75
2023-05-07T22:53:36.710Z,41.95
2023-05-07T22:56:11.123Z,42.06
2023-05-07T22:58:41.873Z,41.58
2023-05-07T23:01:16.494Z,42.04
2023-05-07T23:03:46.946Z,41.90
2023-05-07T23:06:17.254Z,41.80
2023-05-07T23:08:50.473Z,41.98
2023-05-07T23:11:23.079Z,41.95
2023-05-07T23:13:53.511Z,41.92
2023-05-07T23:16:23.671Z,41.59
2023-05-07T23:18:54.070Z,41.68
2023-05-07T23:21:25.006Z,41.85
2023-05-07T23:23:55.519Z,42.04
2023-05-07T23:26:30.066Z,41.86
2023-05-07T23:29:00.494Z,41.68
2023-05-07T23:31:31.451Z,41.96
2023-05-07T23:34:01.254Z,41.89
2023-05-07T23:36:31.786Z,41.79
2023-05-07T23:39:01.711Z,42.07
2023-05-07T23:41:33.745Z,42.04
2023-05-07T23:44:04.198Z,41.80
2023-05-07T23:46:34.263Z,41.91
2023-05-07T23:49:04.190Z,41.86
2023-05-07T23:51:34.320Z,41.99
2023-05-07T23:54:04.546Z,42.05
2023-05-07T23:56:36.329Z,42.23
2023-05-07T23:59:06.703Z,42.15
